Snow Current Weather (METAR) For Innsbruck - Kranebitten Airport

All times on the weather descriptions are local

Observed at 03:50 - (27 mins ago)

Snow

-2°C

Snow
Clouds: Scattered Clouds at 500ft, Broken Clouds at 1,000ft
Wind: Variable at 01 knots
Visibility: 3,000m
QNH: 1018
Dew Point: -2°C
Runway in Use: Unable to determine, wind is variable

Sunrise Today: 07:44
Sunset Today: 17:10

Forecast Weather (TAF) For Innsbruck - Kranebitten Airport

Issued at 01:00 - (3 days 20 hrs ago)


Runway in Use: Unable to determine, wind is clam

Forecast valid until 01:00 on Saturday

METAR/TAF RAW METAR / TAF

LOWI 270250Z VRB01KT 3000 SN SCT005 BKN010 M02/M02 Q1018 NOSIG

Weather Widget

Put weather from any of our airports on your website with our weather widget.

Find Another Search

Airport Search


Please Wait Please Wait - Loading
Close
Close

Login

Username:

Password:

Remember Me:

Remember me on this computer

Forgotten your password? Get a reset password sent to your registered e-mail address

Close

User Private Message

Subject:

Message: